createdAt,value
2018-08-09T00:00:46.634Z,7.80
2018-08-09T00:03:14.449Z,9.03
2018-08-09T00:05:42.327Z,7.70
2018-08-09T00:08:10.204Z,8.10
2018-08-09T00:10:38.028Z,8.27
2018-08-09T00:13:05.829Z,7.93
2018-08-09T00:15:33.677Z,8.37
2018-08-09T00:18:01.500Z,7.80
2018-08-09T00:20:29.306Z,7.60
2018-08-09T00:22:57.139Z,7.90
2018-08-09T00:25:24.944Z,7.97
2018-08-09T00:27:52.728Z,7.97
2018-08-09T00:30:20.603Z,7.77
2018-08-09T00:32:48.412Z,7.70
2018-08-09T00:35:16.202Z,7.77
2018-08-09T00:37:44.008Z,7.57
2018-08-09T00:40:11.823Z,7.97
2018-08-09T00:42:39.657Z,7.90
2018-08-09T00:45:07.496Z,8.13
2018-08-09T00:47:35.272Z,7.77
2018-08-09T00:50:03.188Z,7.47
2018-08-09T00:52:30.977Z,7.40
2018-08-09T00:54:58.805Z,6.97
2018-08-09T00:57:26.613Z,6.53
2018-08-09T00:59:54.386Z,6.70
2018-08-09T01:02:22.351Z,7.90
2018-08-09T01:04:50.118Z,7.40
2018-08-09T01:07:18.121Z,6.47
2018-08-09T01:09:45.957Z,6.93
2018-08-09T01:12:13.801Z,6.70
2018-08-09T01:14:41.610Z,6.90
2018-08-09T01:17:09.904Z,6.80
2018-08-09T01:19:37.799Z,7.40
2018-08-09T01:22:05.709Z,6.03
2018-08-09T01:24:33.557Z,7.40
2018-08-09T01:27:02.030Z,7.00
2018-08-09T01:29:29.888Z,6.73
2018-08-09T01:31:57.692Z,6.67
2018-08-09T01:34:25.467Z,7.03
2018-08-09T01:36:53.344Z,6.60
2018-08-09T01:39:21.144Z,6.77
2018-08-09T01:42:00.160Z,6.67
2018-08-09T01:44:27.928Z,7.73
2018-08-09T01:46:55.717Z,6.70
2018-08-09T01:49:23.542Z,6.43
2018-08-09T01:51:51.357Z,7.27
2018-08-09T01:54:19.135Z,7.43
2018-08-09T01:56:46.885Z,7.10
2018-08-09T01:59:14.688Z,6.63
2018-08-09T02:01:42.508Z,6.90
2018-08-09T02:04:10.252Z,8.00
2018-08-09T02:06:38.055Z,6.73
2018-08-09T02:09:16.397Z,6.70
2018-08-09T02:11:44.165Z,7.23
2018-08-09T02:14:11.954Z,8.10
2018-08-09T02:16:39.704Z,7.50
2018-08-09T02:19:07.461Z,7.20
2018-08-09T02:21:35.303Z,7.23
2018-08-09T02:24:03.172Z,6.97
2018-08-09T02:26:30.937Z,7.27
2018-08-09T02:28:58.762Z,7.00
2018-08-09T02:31:26.551Z,7.87
2018-08-09T02:33:54.296Z,7.50
2018-08-09T02:36:22.110Z,7.57
2018-08-09T02:38:50.540Z,7.90
2018-08-09T02:41:18.335Z,7.40
2018-08-09T02:43:46.302Z,7.90
2018-08-09T02:46:14.073Z,7.33
2018-08-09T02:48:41.891Z,7.53
2018-08-09T02:51:09.761Z,7.30
2018-08-09T02:53:37.545Z,6.37
2018-08-09T02:56:05.426Z,6.90
2018-08-09T02:58:33.265Z,7.30
2018-08-09T03:01:01.086Z,6.87
2018-08-09T03:03:28.859Z,7.50
2018-08-09T03:05:56.671Z,6.70
2018-08-09T03:08:24.445Z,7.70
2018-08-09T03:10:52.355Z,6.17
2018-08-09T03:13:20.145Z,6.80
2018-08-09T03:15:47.958Z,6.70
2018-08-09T03:18:15.763Z,7.33
2018-08-09T03:20:43.577Z,6.53
2018-08-09T03:23:11.333Z,6.50
2018-08-09T03:25:39.289Z,6.67
2018-08-09T03:28:07.116Z,7.30
2018-08-09T03:30:34.877Z,7.07
2018-08-09T03:33:02.749Z,7.70
2018-08-09T03:35:31.536Z,7.73
2018-08-09T03:37:59.281Z,6.43
2018-08-09T03:40:27.112Z,6.47
2018-08-09T03:42:54.873Z,6.50
2018-08-09T03:45:22.668Z,6.20
2018-08-09T03:47:50.464Z,6.50
2018-08-09T03:50:18.315Z,6.40
2018-08-09T03:52:46.105Z,6.20
2018-08-09T03:55:13.968Z,6.20
2018-08-09T03:57:42.100Z,5.60
2018-08-09T04:00:10.317Z,5.90
2018-08-09T04:02:38.525Z,5.50
2018-08-09T04:05:07.184Z,5.53
2018-08-09T04:07:35.044Z,5.53
2018-08-09T04:10:02.936Z,5.90
2018-08-09T04:12:30.676Z,5.13
2018-08-09T04:14:58.617Z,5.73
2018-08-09T04:17:26.427Z,5.90
2018-08-09T04:19:54.295Z,5.40
2018-08-09T04:22:23.032Z,5.70
2018-08-09T04:24:50.824Z,5.40
2018-08-09T04:27:18.611Z,5.50
2018-08-09T04:29:46.390Z,5.53
2018-08-09T04:32:14.255Z,5.57
2018-08-09T04:34:42.060Z,5.57
2018-08-09T04:37:09.941Z,6.23
2018-08-09T04:39:37.756Z,5.40
2018-08-09T04:42:05.857Z,6.10
2018-08-09T04:44:33.943Z,5.50
2018-08-09T04:47:02.676Z,6.37
2018-08-09T04:49:30.487Z,6.20
2018-08-09T04:51:58.772Z,5.57
2018-08-09T04:54:26.768Z,5.60
2018-08-09T04:56:54.548Z,6.20
2018-08-09T04:59:22.336Z,6.07
2018-08-09T05:01:50.122Z,6.87
2018-08-09T05:04:17.969Z,6.30
2018-08-09T05:06:45.996Z,5.67
2018-08-09T05:09:13.802Z,6.07
2018-08-09T05:11:42.052Z,5.87
2018-08-09T05:14:09.916Z,5.50
2018-08-09T05:16:37.834Z,5.50
2018-08-09T05:19:05.652Z,6.20
2018-08-09T05:21:33.485Z,5.77
2018-08-09T05:24:01.298Z,5.97
2018-08-09T05:26:29.190Z,5.80
2018-08-09T05:28:57.056Z,4.60
2018-08-09T05:31:24.871Z,5.23
2018-08-09T05:33:52.698Z,5.27
2018-08-09T05:36:20.549Z,5.10
2018-08-09T05:38:48.394Z,5.50
2018-08-09T05:41:16.300Z,5.07
2018-08-09T05:43:44.091Z,5.67
2018-08-09T05:46:12.478Z,4.80
2018-08-09T05:48:40.302Z,5.00
2018-08-09T05:51:08.964Z,4.63
2018-08-09T05:53:37.217Z,4.70
2018-08-09T05:56:05.332Z,5.23
2018-08-09T05:58:33.223Z,4.97
2018-08-09T06:01:00.992Z,4.53
2018-08-09T06:03:28.856Z,4.33
2018-08-09T06:05:56.793Z,4.00
2018-08-09T06:08:24.592Z,3.87
2018-08-09T06:10:52.408Z,3.77
2018-08-09T06:13:20.273Z,3.90
2018-08-09T06:15:48.036Z,3.63
2018-08-09T06:18:15.867Z,3.80
2018-08-09T06:20:43.662Z,3.50
2018-08-09T06:23:11.533Z,3.52
2018-08-09T06:25:39.315Z,3.47
2018-08-09T06:28:07.117Z,3.80
2018-08-09T06:30:34.939Z,3.58
2018-08-09T06:33:02.763Z,3.90
2018-08-09T06:35:30.576Z,3.58
2018-08-09T06:37:58.395Z,3.80
2018-08-09T06:40:26.286Z,3.95
2018-08-09T06:42:54.121Z,3.70
2018-08-09T06:45:21.903Z,3.50
2018-08-09T06:47:49.679Z,3.33
2018-08-09T06:50:17.503Z,3.55
2018-08-09T06:52:45.431Z,3.22
2018-08-09T06:55:13.217Z,3.60
2018-08-09T06:57:41.100Z,3.08
2018-08-09T07:00:11.348Z,3.87
2018-08-09T07:02:39.172Z,4.00
2018-08-09T07:05:06.990Z,3.65
2018-08-09T07:07:34.840Z,3.62
2018-08-09T07:10:02.626Z,3.50
2018-08-09T07:12:30.890Z,3.60
2018-08-09T07:14:58.774Z,4.12
2018-08-09T07:17:26.549Z,3.05
2018-08-09T07:19:54.415Z,3.60
2018-08-09T07:22:22.214Z,3.65
2018-08-09T07:24:50.010Z,3.60
2018-08-09T07:27:17.914Z,3.50
2018-08-09T07:29:45.734Z,3.80
2018-08-09T07:32:13.613Z,3.52
2018-08-09T07:34:41.442Z,3.33
2018-08-09T07:37:09.243Z,4.03
2018-08-09T07:39:37.174Z,3.90
2018-08-09T07:42:04.984Z,3.65
2018-08-09T07:44:32.845Z,4.08
2018-08-09T07:47:00.637Z,4.12
2018-08-09T07:49:28.954Z,3.75
2018-08-09T07:51:56.776Z,3.55
2018-08-09T07:54:25.346Z,3.95
2018-08-09T07:56:53.264Z,4.05
2018-08-09T07:59:21.075Z,3.50
2018-08-09T08:01:49.075Z,3.33
2018-08-09T08:04:16.868Z,4.08
2018-08-09T08:06:44.684Z,4.10
2018-08-09T08:09:12.807Z,3.95
2018-08-09T08:11:40.623Z,3.47
2018-08-09T08:14:08.489Z,3.55
2018-08-09T08:16:36.349Z,3.92
2018-08-09T08:19:04.417Z,4.10
2018-08-09T08:21:32.169Z,3.47
2018-08-09T08:23:59.924Z,3.80
2018-08-09T08:26:27.753Z,3.45
2018-08-09T08:28:55.624Z,3.65
2018-08-09T08:31:23.540Z,3.92
2018-08-09T08:33:51.304Z,3.40
2018-08-09T08:36:19.182Z,3.45
2018-08-09T08:38:47.123Z,3.40
2018-08-09T08:41:14.918Z,4.08
2018-08-09T08:43:43.000Z,3.62
2018-08-09T08:46:10.818Z,3.70
2018-08-09T08:48:38.595Z,3.83
2018-08-09T08:51:06.401Z,3.70
2018-08-09T08:53:34.190Z,3.65
2018-08-09T08:56:02.043Z,3.90
2018-08-09T08:58:29.952Z,3.98
2018-08-09T09:00:57.771Z,3.95
2018-08-09T09:03:25.652Z,3.45
2018-08-09T09:05:53.477Z,3.55
2018-08-09T09:08:21.263Z,4.08
2018-08-09T09:10:53.032Z,3.55
2018-08-09T09:13:21.117Z,4.25
2018-08-09T09:15:48.949Z,3.77
2018-08-09T09:18:16.827Z,3.75
2018-08-09T09:20:44.619Z,3.85
2018-08-09T09:23:12.449Z,3.72
2018-08-09T09:25:40.264Z,4.17
2018-08-09T09:28:08.100Z,4.17
2018-08-09T09:30:35.944Z,4.20
2018-08-09T09:33:03.792Z,3.20
2018-08-09T09:35:31.569Z,4.15
2018-08-09T09:37:59.391Z,3.75
2018-08-09T09:40:27.224Z,4.62
2018-08-09T09:42:55.086Z,3.90
2018-08-09T09:45:22.852Z,3.58
2018-08-09T09:47:50.657Z,3.12
2018-08-09T09:50:18.440Z,3.55
2018-08-09T09:52:46.325Z,3.58
2018-08-09T09:55:14.165Z,3.62
2018-08-09T09:57:41.986Z,3.65
2018-08-09T10:00:15.336Z,4.05
2018-08-09T10:02:43.628Z,3.65
2018-08-09T10:05:11.449Z,3.72
2018-08-09T10:07:39.403Z,3.85
2018-08-09T10:10:07.962Z,3.50
2018-08-09T10:12:35.800Z,3.65
2018-08-09T10:15:03.777Z,3.90
2018-08-09T10:17:31.612Z,3.83
2018-08-09T10:19:59.387Z,3.60
2018-08-09T10:22:27.242Z,3.30
2018-08-09T10:24:55.021Z,3.80
2018-08-09T10:27:22.786Z,3.65
2018-08-09T10:29:50.624Z,3.55
2018-08-09T10:32:18.492Z,3.80
2018-08-09T10:34:46.311Z,4.12
2018-08-09T10:37:14.119Z,4.25
2018-08-09T10:39:42.014Z,4.17
2018-08-09T10:42:09.786Z,3.65
2018-08-09T10:44:37.546Z,3.85
2018-08-09T10:47:05.387Z,3.60
2018-08-09T10:49:33.189Z,4.05
2018-08-09T10:52:00.930Z,4.08
2018-08-09T10:54:28.744Z,4.20
2018-08-09T10:56:56.590Z,4.33
2018-08-09T10:59:24.416Z,4.00
2018-08-09T11:01:52.335Z,4.53
2018-08-09T11:04:20.083Z,3.95
2018-08-09T11:06:47.912Z,4.08
2018-08-09T11:09:15.729Z,4.22
2018-08-09T11:11:43.566Z,4.20
2018-08-09T11:14:11.340Z,4.50
2018-08-09T11:16:39.149Z,4.75
2018-08-09T11:19:06.953Z,4.15
2018-08-09T11:21:34.726Z,4.75
2018-08-09T11:24:02.544Z,4.40
2018-08-09T11:26:30.368Z,4.10
2018-08-09T11:28:58.132Z,3.90
2018-08-09T11:31:25.900Z,4.10
2018-08-09T11:33:53.681Z,4.05
2018-08-09T11:36:21.433Z,4.42
2018-08-09T11:38:49.174Z,4.20
2018-08-09T11:41:16.907Z,4.25
2018-08-09T11:43:44.709Z,3.95
2018-08-09T11:46:12.522Z,4.22
2018-08-09T11:48:40.264Z,3.80
2018-08-09T11:51:08.035Z,3.87
2018-08-09T11:53:35.837Z,4.22
2018-08-09T11:56:03.631Z,4.17
2018-08-09T11:58:31.394Z,4.05
2018-08-09T12:00:59.188Z,4.12
2018-08-09T12:03:26.976Z,4.28
2018-08-09T12:05:54.782Z,3.75
2018-08-09T12:08:22.723Z,4.30
2018-08-09T12:10:50.493Z,3.92
2018-08-09T12:13:18.273Z,4.20
2018-08-09T12:15:46.068Z,4.15
2018-08-09T12:18:13.979Z,4.28
2018-08-09T12:20:41.908Z,3.98
2018-08-09T12:23:09.712Z,4.25
2018-08-09T12:25:37.547Z,4.55
2018-08-09T12:28:05.618Z,3.85
2018-08-09T12:30:33.424Z,4.10
2018-08-09T12:33:01.212Z,4.55
2018-08-09T12:35:29.040Z,3.67
2018-08-09T12:37:56.906Z,3.60
2018-08-09T12:40:24.716Z,3.80
2018-08-09T12:42:52.524Z,4.30
2018-08-09T12:45:20.366Z,3.95
2018-08-09T12:47:48.213Z,4.10
2018-08-09T12:50:16.023Z,4.35
2018-08-09T12:52:44.361Z,4.12
2018-08-09T12:55:13.369Z,4.30
2018-08-09T12:57:41.253Z,3.33
2018-08-09T13:00:11.061Z,3.95
2018-08-09T13:02:39.012Z,3.90
2018-08-09T13:05:08.136Z,3.60
2018-08-09T13:07:36.300Z,4.28
2018-08-09T13:10:05.913Z,4.33
2018-08-09T13:12:33.794Z,4.30
2018-08-09T13:15:01.704Z,4.10
2018-08-09T13:17:29.503Z,3.90
2018-08-09T13:19:57.298Z,4.45
2018-08-09T13:22:25.164Z,3.90
2018-08-09T13:24:53.036Z,3.92
2018-08-09T13:27:20.824Z,4.12
2018-08-09T13:29:48.710Z,4.35
2018-08-09T13:32:16.591Z,4.33
2018-08-09T13:34:44.392Z,4.37
2018-08-09T13:37:12.188Z,4.67
2018-08-09T13:39:40.056Z,4.47
2018-08-09T13:42:07.873Z,4.20
2018-08-09T13:44:35.753Z,4.40
2018-08-09T13:47:03.626Z,4.45
2018-08-09T13:49:31.418Z,4.25
2018-08-09T13:51:59.422Z,4.28
2018-08-09T13:54:27.303Z,4.37
2018-08-09T13:56:55.109Z,4.10
2018-08-09T13:59:22.936Z,4.25
2018-08-09T14:01:50.742Z,3.75
2018-08-09T14:04:18.962Z,4.28
2018-08-09T14:06:46.865Z,4.12
2018-08-09T14:09:14.675Z,4.35
2018-08-09T14:11:42.932Z,4.20
2018-08-09T14:14:11.125Z,4.58
2018-08-09T14:16:39.392Z,4.10
2018-08-09T14:19:07.707Z,4.85
2018-08-09T14:21:35.503Z,4.50
2018-08-09T14:24:03.433Z,4.72
2018-08-09T14:26:31.265Z,4.22
2018-08-09T14:28:59.066Z,4.20
2018-08-09T14:31:26.906Z,4.70
2018-08-09T14:33:54.760Z,4.33
2018-08-09T14:36:22.551Z,4.08
2018-08-09T14:38:50.370Z,4.20
2018-08-09T14:41:18.200Z,4.75
2018-08-09T14:43:46.041Z,4.17
2018-08-09T14:46:13.932Z,4.28
2018-08-09T14:48:41.863Z,4.25
2018-08-09T14:51:09.705Z,4.67
2018-08-09T14:53:37.675Z,4.10
2018-08-09T14:56:06.147Z,4.80
2018-08-09T14:58:34.230Z,4.33
2018-08-09T15:01:02.132Z,5.10
2018-08-09T15:03:30.076Z,3.98
2018-08-09T15:05:57.965Z,4.50
2018-08-09T15:08:25.849Z,4.72
2018-08-09T15:10:53.715Z,4.67
2018-08-09T15:13:21.633Z,4.85
2018-08-09T15:15:49.505Z,4.22
2018-08-09T15:18:17.368Z,6.42
2018-08-09T15:20:45.207Z,4.70
2018-08-09T15:23:13.064Z,4.85
2018-08-09T15:25:40.930Z,5.03
2018-08-09T15:28:08.865Z,4.78
2018-08-09T15:30:36.860Z,5.10
2018-08-09T15:33:05.799Z,4.78
2018-08-09T15:35:33.672Z,4.90
2018-08-09T15:38:01.510Z,5.22
2018-08-09T15:40:29.426Z,4.95
2018-08-09T15:42:57.254Z,5.30
2018-08-09T15:45:25.173Z,5.60
2018-08-09T15:47:53.213Z,5.33
2018-08-09T15:50:21.208Z,5.15
2018-08-09T15:52:49.089Z,4.78
2018-08-09T15:55:17.941Z,4.92
2018-08-09T15:57:46.079Z,4.95
2018-08-09T16:00:21.132Z,4.87
2018-08-09T16:02:49.229Z,4.72
2018-08-09T16:05:17.213Z,5.28
2018-08-09T16:07:46.244Z,4.92
2018-08-09T16:10:15.253Z,5.20
2018-08-09T16:12:43.180Z,4.95
2018-08-09T16:15:13.585Z,5.25
2018-08-09T16:17:41.645Z,5.33
2018-08-09T16:20:10.652Z,5.17
2018-08-09T16:22:38.791Z,5.47
2018-08-09T16:25:09.631Z,5.55
2018-08-09T16:27:37.766Z,5.12
2018-08-09T16:30:10.092Z,4.80
2018-08-09T16:32:38.144Z,4.80
2018-08-09T16:35:06.147Z,4.95
2018-08-09T16:37:34.135Z,5.20
2018-08-09T16:40:02.013Z,5.17
2018-08-09T16:42:30.538Z,5.45
2018-08-09T16:44:58.476Z,5.20
2018-08-09T16:47:26.354Z,4.72
2018-08-09T16:49:54.678Z,5.10
2018-08-09T16:52:22.654Z,5.42
2018-08-09T16:54:50.506Z,5.55
2018-08-09T16:57:18.512Z,5.12
2018-08-09T16:59:46.334Z,5.42
2018-08-09T17:02:15.223Z,4.97
2018-08-09T17:04:43.171Z,4.65
2018-08-09T17:07:11.791Z,5.30
2018-08-09T17:09:39.781Z,5.03
2018-08-09T17:12:07.764Z,4.35
2018-08-09T17:14:35.738Z,4.95
2018-08-09T17:17:03.775Z,5.85
2018-08-09T17:19:31.652Z,5.83
2018-08-09T17:21:59.645Z,5.30
2018-08-09T17:24:27.524Z,5.60
2018-08-09T17:26:55.540Z,5.47
2018-08-09T17:29:24.101Z,5.55
2018-08-09T17:31:52.088Z,5.20
2018-08-09T17:34:20.060Z,5.12
2018-08-09T17:36:47.934Z,5.72
2018-08-09T17:39:15.918Z,5.78
2018-08-09T17:41:43.769Z,5.83
2018-08-09T17:44:11.943Z,5.42
2018-08-09T17:46:39.860Z,6.55
2018-08-09T17:49:07.761Z,5.75
2018-08-09T17:51:35.663Z,6.17
2018-08-09T17:54:04.239Z,6.20
2018-08-09T17:56:32.263Z,6.03
2018-08-09T17:59:00.153Z,6.22
2018-08-09T18:01:27.936Z,5.30
2018-08-09T18:03:55.804Z,5.40
2018-08-09T18:06:23.875Z,5.75
2018-08-09T18:08:51.807Z,5.17
2018-08-09T18:11:19.618Z,5.97
2018-08-09T18:13:47.669Z,5.77
2018-08-09T18:16:15.620Z,5.80
2018-08-09T18:18:43.717Z,5.90
2018-08-09T18:21:12.542Z,5.53
2018-08-09T18:23:40.406Z,5.80
2018-08-09T18:26:08.303Z,6.70
2018-08-09T18:28:36.337Z,6.70
2018-08-09T18:31:04.261Z,6.67
2018-08-09T18:33:32.085Z,6.00
2018-08-09T18:35:59.951Z,5.97
2018-08-09T18:38:27.897Z,6.83
2018-08-09T18:40:55.746Z,7.30
2018-08-09T18:43:23.566Z,7.13
2018-08-09T18:45:51.508Z,6.50
2018-08-09T18:48:19.449Z,8.70
2018-08-09T18:50:47.323Z,7.90
2018-08-09T18:53:15.118Z,8.10
2018-08-09T18:55:43.212Z,7.73
2018-08-09T18:58:11.216Z,7.60
2018-08-09T19:00:39.928Z,7.37
2018-08-09T19:03:09.165Z,7.60
2018-08-09T19:05:38.318Z,7.97
2018-08-09T19:08:06.162Z,8.23
2018-08-09T19:10:34.052Z,7.47
2018-08-09T19:13:01.930Z,7.17
2018-08-09T19:15:29.773Z,8.20
2018-08-09T19:17:57.758Z,9.37
2018-08-09T19:20:28.151Z,8.60
2018-08-09T19:22:56.113Z,7.93
2018-08-09T19:25:24.069Z,7.80
2018-08-09T19:27:51.964Z,8.10
2018-08-09T19:30:22.346Z,8.10
2018-08-09T19:32:50.356Z,8.53
2018-08-09T19:35:18.988Z,8.30
2018-08-09T19:37:46.854Z,8.73
2018-08-09T19:40:17.426Z,8.33
2018-08-09T19:42:45.266Z,7.97
2018-08-09T19:45:19.432Z,7.47
2018-08-09T19:47:47.400Z,8.67
2018-08-09T19:50:17.117Z,8.47
2018-08-09T19:52:45.376Z,8.47
2018-08-09T19:55:15.722Z,9.13
2018-08-09T19:57:44.640Z,8.10
2018-08-09T20:00:15.111Z,8.57
2018-08-09T20:02:44.155Z,8.80
2018-08-09T20:05:11.989Z,8.13
2018-08-09T20:07:40.204Z,8.50
2018-08-09T20:10:09.609Z,9.60
2018-08-09T20:12:37.616Z,10.20
2018-08-09T20:15:08.206Z,9.43
2018-08-09T20:17:36.224Z,10.13
2018-08-09T20:20:04.852Z,9.80
2018-08-09T20:22:32.659Z,9.70
2018-08-09T20:25:00.628Z,9.70
2018-08-09T20:27:28.610Z,9.17
2018-08-09T20:30:29.600Z,11.23
2018-08-09T20:32:57.429Z,10.57
2018-08-09T20:35:25.551Z,9.27
2018-08-09T20:37:53.668Z,10.10
2018-08-09T20:40:22.732Z,8.90
2018-08-09T20:42:51.600Z,9.03
2018-08-09T20:45:20.747Z,9.40
2018-08-09T20:47:48.753Z,9.27
2018-08-09T20:50:19.736Z,9.67
2018-08-09T20:52:48.638Z,8.93
2018-08-09T20:55:16.720Z,11.33
2018-08-09T20:57:45.484Z,11.30
2018-08-09T21:00:15.877Z,10.07
2018-08-09T21:02:44.746Z,10.60
2018-08-09T21:05:22.346Z,10.97
2018-08-09T21:07:51.102Z,9.10
2018-08-09T21:10:18.963Z,10.03
2018-08-09T21:12:46.874Z,9.87
2018-08-09T21:15:15.126Z,12.93
2018-08-09T21:17:43.213Z,9.60
2018-08-09T21:20:11.792Z,10.17
2018-08-09T21:22:39.976Z,9.60
2018-08-09T21:25:08.788Z,9.90
2018-08-09T21:27:36.640Z,8.70
2018-08-09T21:30:06.569Z,10.73
2018-08-09T21:32:34.858Z,9.63
2018-08-09T21:35:02.918Z,10.33
2018-08-09T21:37:30.713Z,10.13
2018-08-09T21:39:58.539Z,12.23
2018-08-09T21:42:26.472Z,11.67
2018-08-09T21:44:54.668Z,11.57
2018-08-09T21:47:22.484Z,12.40
2018-08-09T21:49:50.377Z,13.17
2018-08-09T21:52:18.256Z,10.63
2018-08-09T21:54:46.141Z,13.27
2018-08-09T21:57:14.035Z,11.13
2018-08-09T21:59:41.954Z,9.40
2018-08-09T22:02:10.025Z,9.13
2018-08-09T22:04:43.560Z,11.43
2018-08-09T22:07:16.768Z,10.20
2018-08-09T22:09:50.149Z,10.07
2018-08-09T22:12:23.527Z,9.70
2018-08-09T22:14:57.990Z,9.30
2018-08-09T22:17:31.360Z,9.70
2018-08-09T22:20:04.685Z,11.87
2018-08-09T22:22:36.102Z,10.57
2018-08-09T22:25:05.372Z,10.33
2018-08-09T22:27:33.703Z,9.93
2018-08-09T22:30:02.304Z,19.43
2018-08-09T22:32:30.139Z,12.70
2018-08-09T22:34:58.026Z,12.67
2018-08-09T22:37:26.240Z,12.37
2018-08-09T22:39:54.117Z,12.10
2018-08-09T22:42:21.944Z,11.70
2018-08-09T22:44:49.814Z,10.97
2018-08-09T22:47:17.723Z,15.77
2018-08-09T22:49:45.558Z,11.70
2018-08-09T22:52:13.432Z,9.40
2018-08-09T22:54:41.452Z,11.33
2018-08-09T22:57:09.269Z,15.13
2018-08-09T22:59:37.140Z,15.23
2018-08-09T23:02:04.975Z,18.77
2018-08-09T23:04:32.872Z,23.03
2018-08-09T23:07:00.768Z,20.77
2018-08-09T23:09:28.679Z,22.47
2018-08-09T23:11:56.496Z,32.57
2018-08-09T23:14:24.371Z,28.97
2018-08-09T23:16:52.411Z,26.80
2018-08-09T23:19:20.324Z,27.47
2018-08-09T23:21:48.206Z,39.63
2018-08-09T23:24:16.159Z,34.73
2018-08-09T23:26:44.517Z,25.30
2018-08-09T23:29:13.612Z,22.67
2018-08-09T23:31:41.483Z,28.07
2018-08-09T23:34:09.304Z,33.77
2018-08-09T23:36:37.145Z,33.57
2018-08-09T23:39:08.584Z,26.97
2018-08-09T23:41:36.835Z,31.97
2018-08-09T23:44:04.754Z,24.13
2018-08-09T23:46:33.402Z,29.30
2018-08-09T23:49:01.317Z,26.33
2018-08-09T23:51:29.124Z,20.83
2018-08-09T23:53:56.990Z,24.50
2018-08-09T23:56:24.880Z,32.33
2018-08-09T23:58:52.739Z,18.50
